Dubai, United Arab Emirates
Current Conditions -  °F | °C
As of 12:00 PM on Sunday 21 Dec 2014 (Local Time) from OMDB Reporting Station
Few Clouds Few Clouds  
Wind Chill: 23°   Ceiling: Unl
Heat Index: 23°   Visibility: 6mi
Dew Point: 12°   Wind: 7mph
Humidity: 50%   Direction: 240°WSW
Pressure: 30.03"   Gusts: NA
Location:  25.27°N, 55.33°E
Report Text: OMDB 210800Z 24006KT 190V330 9999 FEW036 23/12 Q1017 NOSIG
Loading
Personal Weather Stations






























Interactive Weather Map New forecast layout! Learn more

10-Day Weather Forecast

Advertisements
Track Severe Weather on mobile